createdAt,value
2022-10-17T00:01:53.830Z,3.03
2022-10-17T00:04:20.079Z,3.20
2022-10-17T00:06:46.339Z,3.33
2022-10-17T00:09:12.552Z,4.15
2022-10-17T00:11:39.299Z,2.10
2022-10-17T00:14:05.575Z,9.25
2022-10-17T00:16:34.189Z,4.53
2022-10-17T00:19:00.525Z,4.13
2022-10-17T00:21:26.780Z,3.60
2022-10-17T00:23:53.343Z,3.70
2022-10-17T00:26:20.752Z,3.72
2022-10-17T00:28:47.864Z,5.95
2022-10-17T00:31:14.657Z,3.65
2022-10-17T00:33:40.957Z,3.00
2022-10-17T00:36:17.423Z,3.10
2022-10-17T00:38:45.051Z,3.17
2022-10-17T00:41:12.466Z,1.73
2022-10-17T00:43:52.131Z,5.50
2022-10-17T00:46:18.603Z,1.83
2022-10-17T00:48:45.243Z,4.00
2022-10-17T00:51:11.476Z,2.55
2022-10-17T00:53:39.000Z,3.20
2022-10-17T00:56:05.569Z,1.85
2022-10-17T00:58:31.895Z,2.20
2022-10-17T01:00:58.116Z,2.88
2022-10-17T01:03:24.390Z,2.58
2022-10-17T01:05:50.607Z,2.95
2022-10-17T01:08:16.863Z,2.83
2022-10-17T01:11:01.986Z,2.03
2022-10-17T01:13:33.889Z,4.53
2022-10-17T01:16:09.746Z,2.30
2022-10-17T01:18:41.711Z,1.88
2022-10-17T01:21:18.255Z,2.95
2022-10-17T01:23:59.746Z,1.58
2022-10-17T01:26:37.373Z,1.88
2022-10-17T01:29:12.807Z,2.53
2022-10-17T01:31:46.372Z,1.23
2022-10-17T01:34:18.751Z,4.65
2022-10-17T01:36:50.839Z,2.03
2022-10-17T01:39:24.995Z,2.17
2022-10-17T01:41:59.719Z,2.42
2022-10-17T01:44:39.149Z,1.40
2022-10-17T01:47:07.483Z,2.53
2022-10-17T01:49:34.305Z,3.28
2022-10-17T01:52:08.683Z,1.83
2022-10-17T01:54:43.683Z,4.97
2022-10-17T01:57:13.462Z,2.50
2022-10-17T01:59:40.943Z,2.13
2022-10-17T02:02:08.381Z,1.98
2022-10-17T02:04:35.230Z,1.13
2022-10-17T02:07:08.236Z,2.83
2022-10-17T02:09:35.883Z,3.05
2022-10-17T02:12:20.539Z,1.27
2022-10-17T02:14:46.721Z,1.45
2022-10-17T02:17:31.117Z,2.55
2022-10-17T02:20:16.294Z,2.13
2022-10-17T02:22:45.510Z,1.98
2022-10-17T02:25:11.685Z,1.25
2022-10-17T02:27:43.865Z,4.57
2022-10-17T02:30:10.093Z,1.63
2022-10-17T02:32:36.325Z,2.10
2022-10-17T02:35:03.676Z,3.83
2022-10-17T02:37:31.333Z,1.25
2022-10-17T02:39:59.090Z,1.92
2022-10-17T02:42:26.343Z,3.60
2022-10-17T02:44:53.722Z,1.88
2022-10-17T02:47:31.776Z,1.52
2022-10-17T02:50:01.182Z,3.28
2022-10-17T02:52:46.003Z,1.80
2022-10-17T02:55:16.507Z,3.80
2022-10-17T02:57:50.648Z,1.80
2022-10-17T03:00:17.752Z,2.08
2022-10-17T03:02:45.241Z,2.78
2022-10-17T03:05:12.838Z,6.00
2022-10-17T03:07:39.281Z,2.75
2022-10-17T03:10:06.539Z,2.78
2022-10-17T03:12:32.758Z,2.10
2022-10-17T03:14:59.003Z,1.40
2022-10-17T03:17:25.281Z,1.60
2022-10-17T03:19:51.548Z,2.03
2022-10-17T03:22:17.775Z,3.40
2022-10-17T03:24:43.999Z,1.42
2022-10-17T03:27:10.383Z,1.50
2022-10-17T03:29:36.716Z,1.98
2022-10-17T03:32:03.036Z,3.60
2022-10-17T03:34:29.242Z,1.52
2022-10-17T03:36:55.524Z,4.68
2022-10-17T03:39:21.738Z,2.47
2022-10-17T03:41:47.955Z,4.93
2022-10-17T03:44:14.224Z,1.73
2022-10-17T03:46:40.432Z,1.58
2022-10-17T03:49:06.690Z,3.00
2022-10-17T03:51:33.344Z,4.75
2022-10-17T03:53:59.557Z,7.13
2022-10-17T03:56:26.257Z,3.53
2022-10-17T03:58:52.561Z,3.53
2022-10-17T04:01:19.333Z,2.20
2022-10-17T04:03:48.921Z,1.67
2022-10-17T04:06:15.162Z,3.42
2022-10-17T04:08:42.656Z,1.90
2022-10-17T04:11:10.612Z,1.50
2022-10-17T04:13:36.877Z,2.50
2022-10-17T04:16:05.672Z,1.63
2022-10-17T04:18:32.479Z,1.67
2022-10-17T04:21:00.889Z,1.63
2022-10-17T04:23:27.133Z,1.88
2022-10-17T04:25:56.819Z,3.65
2022-10-17T04:28:23.305Z,4.20
2022-10-17T04:30:55.787Z,8.73
2022-10-17T04:33:21.996Z,5.32
2022-10-17T04:36:08.497Z,3.83
2022-10-17T04:38:34.735Z,4.47
2022-10-17T04:41:04.545Z,5.30
2022-10-17T04:43:31.494Z,1.45
2022-10-17T04:45:58.441Z,2.55
2022-10-17T04:48:24.659Z,4.45
2022-10-17T04:50:54.515Z,1.92
2022-10-17T04:53:20.954Z,5.43
2022-10-17T04:55:47.171Z,3.00
2022-10-17T04:58:13.374Z,3.15
2022-10-17T05:00:39.788Z,3.05
2022-10-17T05:03:06.038Z,1.70
2022-10-17T05:05:32.304Z,2.65
2022-10-17T05:07:58.546Z,4.13
2022-10-17T05:10:24.819Z,3.70
2022-10-17T05:12:51.113Z,3.42
2022-10-17T05:15:17.320Z,5.32
2022-10-17T05:17:43.530Z,4.93
2022-10-17T05:20:10.135Z,3.72
2022-10-17T05:22:39.639Z,4.75
2022-10-17T05:25:08.398Z,4.50
2022-10-17T05:27:34.599Z,3.83
2022-10-17T05:30:00.799Z,7.38
2022-10-17T05:32:27.237Z,3.88
2022-10-17T05:34:53.705Z,5.90
2022-10-17T05:37:19.969Z,5.22
2022-10-17T05:39:50.635Z,4.25
2022-10-17T05:42:17.940Z,3.63
2022-10-17T05:44:44.259Z,3.55
2022-10-17T05:47:10.468Z,1.67
2022-10-17T05:49:49.777Z,6.20
2022-10-17T05:52:17.600Z,3.30
2022-10-17T05:54:43.806Z,2.85
2022-10-17T05:57:10.272Z,2.08
2022-10-17T05:59:36.482Z,2.58
2022-10-17T06:02:02.761Z,2.80
2022-10-17T06:04:29.052Z,3.03
2022-10-17T06:06:56.187Z,5.45
2022-10-17T06:09:22.854Z,4.82
2022-10-17T06:11:49.102Z,2.17
2022-10-17T06:14:15.422Z,2.05
2022-10-17T06:16:43.321Z,4.25
2022-10-17T06:19:11.398Z,3.53
2022-10-17T06:21:38.739Z,5.15
2022-10-17T06:24:05.166Z,2.58
2022-10-17T06:26:31.420Z,3.70
2022-10-17T06:28:57.657Z,6.78
2022-10-17T06:31:23.903Z,5.75
2022-10-17T06:33:50.103Z,3.75
2022-10-17T06:36:16.358Z,4.20
2022-10-17T06:38:42.727Z,2.17
2022-10-17T06:41:16.235Z,4.35
2022-10-17T06:43:43.443Z,7.60
2022-10-17T06:46:09.873Z,3.53
2022-10-17T06:48:36.169Z,3.67
2022-10-17T06:51:04.403Z,2.63
2022-10-17T06:53:32.135Z,1.83
2022-10-17T06:56:02.840Z,1.80
2022-10-17T06:58:30.048Z,2.75
2022-10-17T07:01:03.475Z,2.42
2022-10-17T07:03:30.123Z,8.75
2022-10-17T07:05:56.955Z,6.18
2022-10-17T07:08:23.277Z,5.53
2022-10-17T07:10:49.794Z,2.88
2022-10-17T07:13:16.038Z,6.00
2022-10-17T07:15:42.262Z,8.70
2022-10-17T07:18:08.514Z,6.30
2022-10-17T07:20:35.091Z,3.22
2022-10-17T07:23:01.358Z,3.45
2022-10-17T07:25:28.349Z,3.03
2022-10-17T07:27:54.650Z,3.78
2022-10-17T07:30:21.449Z,3.10
2022-10-17T07:32:47.774Z,2.20
2022-10-17T07:35:14.565Z,3.33
2022-10-17T07:37:41.027Z,5.03
2022-10-17T07:40:07.943Z,8.05
2022-10-17T07:42:36.466Z,7.05
2022-10-17T07:45:02.978Z,6.45
2022-10-17T07:47:31.427Z,8.90
2022-10-17T07:49:58.215Z,10.15
2022-10-17T07:52:24.463Z,9.90
2022-10-17T07:54:50.668Z,7.03
2022-10-17T07:57:16.914Z,9.82
2022-10-17T07:59:43.142Z,6.18
2022-10-17T08:02:14.072Z,5.65
2022-10-17T08:04:40.293Z,5.97
2022-10-17T08:07:19.659Z,8.45
2022-10-17T08:09:46.546Z,11.60
2022-10-17T08:12:14.586Z,6.25
2022-10-17T08:14:43.838Z,7.55
2022-10-17T08:17:10.190Z,4.03
2022-10-17T08:19:40.311Z,9.07
2022-10-17T08:22:07.015Z,6.63
2022-10-17T08:24:33.250Z,8.27
2022-10-17T08:27:00.593Z,8.43
2022-10-17T08:29:27.219Z,4.00
2022-10-17T08:31:58.538Z,4.63
2022-10-17T08:34:27.770Z,9.10
2022-10-17T08:36:54.043Z,6.03
2022-10-17T08:39:20.286Z,3.15
2022-10-17T08:41:54.006Z,4.00
2022-10-17T08:44:25.552Z,5.53
2022-10-17T08:46:53.658Z,5.35
2022-10-17T08:49:27.523Z,6.03
2022-10-17T08:51:57.481Z,6.40
2022-10-17T08:54:31.256Z,11.10
2022-10-17T08:56:57.727Z,4.90
2022-10-17T08:59:26.548Z,8.30
2022-10-17T09:01:58.548Z,3.75
2022-10-17T09:04:43.400Z,4.43
2022-10-17T09:07:09.607Z,3.60
2022-10-17T09:09:54.402Z,5.50
2022-10-17T09:12:24.486Z,3.78
2022-10-17T09:14:57.722Z,5.72
2022-10-17T09:17:24.108Z,6.32
2022-10-17T09:19:50.339Z,8.50
2022-10-17T09:22:21.375Z,2.95
2022-10-17T09:24:50.627Z,5.32
2022-10-17T09:27:30.765Z,3.17
2022-10-17T09:30:26.875Z,3.90
2022-10-17T09:33:10.843Z,2.35
2022-10-17T09:35:41.908Z,3.78
2022-10-17T09:38:18.695Z,3.85
2022-10-17T09:40:46.108Z,4.50
2022-10-17T09:43:15.047Z,5.57
2022-10-17T09:45:47.008Z,3.42
2022-10-17T09:48:23.027Z,2.97
2022-10-17T09:50:57.828Z,4.35
2022-10-17T09:53:36.530Z,5.25
2022-10-17T09:56:03.664Z,4.18
2022-10-17T09:58:44.969Z,2.90
2022-10-17T10:01:25.754Z,2.72
2022-10-17T10:04:08.931Z,4.60
2022-10-17T10:06:35.552Z,4.30
2022-10-17T10:09:05.779Z,4.60
2022-10-17T10:14:10.854Z,2.78
2022-10-17T10:16:41.629Z,4.55
2022-10-17T10:19:20.147Z,3.28
2022-10-17T10:22:05.394Z,3.17
2022-10-17T10:24:32.096Z,4.60
2022-10-17T10:27:12.759Z,3.50
2022-10-17T10:29:43.187Z,2.60
2022-10-17T10:32:12.257Z,2.65
2022-10-17T10:34:49.451Z,2.65
2022-10-17T10:37:23.480Z,6.82
2022-10-17T10:39:55.713Z,7.63
2022-10-17T10:42:27.456Z,4.03
2022-10-17T10:44:54.803Z,10.73
2022-10-17T10:47:28.819Z,2.92
2022-10-17T10:50:27.592Z,5.07
2022-10-17T10:52:53.782Z,3.53
2022-10-17T10:55:19.989Z,6.10
2022-10-17T10:57:46.943Z,2.90
2022-10-17T11:00:16.250Z,10.93
2022-10-17T11:02:53.748Z,6.05
2022-10-17T11:05:23.579Z,2.22
2022-10-17T11:07:56.071Z,3.30
2022-10-17T11:10:25.227Z,4.57
2022-10-17T11:13:14.726Z,4.43
2022-10-17T11:15:45.723Z,5.23
2022-10-17T11:18:16.207Z,4.93
2022-10-17T11:20:47.517Z,3.63
2022-10-17T11:23:21.324Z,4.55
2022-10-17T11:25:49.188Z,3.80
2022-10-17T11:28:17.072Z,3.47
2022-10-17T11:30:55.964Z,3.13
2022-10-17T11:33:25.349Z,4.32
2022-10-17T11:35:52.802Z,2.03
2022-10-17T11:38:21.938Z,3.67
2022-10-17T11:40:50.242Z,2.22
2022-10-17T11:43:19.873Z,3.40
2022-10-17T11:45:48.489Z,3.90
2022-10-17T11:48:21.270Z,5.28
2022-10-17T11:54:02.003Z,2.85
2022-10-17T11:56:46.756Z,3.40
2022-10-17T11:59:31.350Z,1.55
2022-10-17T12:02:01.480Z,4.30
2022-10-17T12:04:36.638Z,2.70
2022-10-17T12:07:09.260Z,2.88
2022-10-17T12:09:43.138Z,2.10
2022-10-17T12:12:09.439Z,2.40
2022-10-17T12:14:45.624Z,2.05
2022-10-17T12:17:32.402Z,2.95
2022-10-17T12:20:17.662Z,2.97
2022-10-17T12:22:50.611Z,1.40
2022-10-17T12:25:21.455Z,1.55
2022-10-17T12:27:48.304Z,2.67
2022-10-17T12:30:22.179Z,8.93
2022-10-17T12:33:05.617Z,1.92
2022-10-17T12:35:33.342Z,2.38
2022-10-17T12:38:00.950Z,3.33
2022-10-17T12:40:36.189Z,1.95
2022-10-17T12:43:22.346Z,1.25
2022-10-17T12:45:48.601Z,2.40
2022-10-17T12:48:33.117Z,1.85
2022-10-17T12:53:48.416Z,1.50
2022-10-17T12:56:16.020Z,1.33
2022-10-17T12:58:44.570Z,1.38
2022-10-17T13:01:24.238Z,6.38
2022-10-17T13:06:22.595Z,1.50
2022-10-17T13:08:54.853Z,8.65
2022-10-17T13:11:23.948Z,4.43
2022-10-17T13:13:52.291Z,2.72
2022-10-17T13:16:30.646Z,3.83
2022-10-17T13:18:58.021Z,2.85
2022-10-17T13:21:24.320Z,5.18
2022-10-17T13:23:52.957Z,5.75
2022-10-17T13:26:21.038Z,2.72
2022-10-17T13:29:00.723Z,5.85
2022-10-17T13:31:34.204Z,5.72
2022-10-17T13:34:01.967Z,9.38
2022-10-17T13:36:28.919Z,3.00
2022-10-17T13:38:55.207Z,6.15
2022-10-17T13:41:35.424Z,1.85
2022-10-17T13:44:04.508Z,4.25
2022-10-17T13:46:37.911Z,3.53
2022-10-17T13:49:16.833Z,5.90
2022-10-17T13:51:44.448Z,4.55
2022-10-17T13:54:25.827Z,4.93
2022-10-17T13:56:58.694Z,10.45
2022-10-17T13:59:26.795Z,3.70
2022-10-17T14:01:54.891Z,6.30
2022-10-17T14:04:21.175Z,5.35
2022-10-17T14:06:49.606Z,10.98
2022-10-17T14:09:23.282Z,7.20
2022-10-17T14:12:01.615Z,4.53
2022-10-17T14:14:29.102Z,4.93
2022-10-17T14:16:56.603Z,9.50
2022-10-17T14:19:25.748Z,4.32
2022-10-17T14:21:56.834Z,7.03
2022-10-17T14:24:23.022Z,12.07
2022-10-17T14:26:50.582Z,10.25
2022-10-17T14:29:25.815Z,12.98
2022-10-17T14:32:02.662Z,9.55
2022-10-17T14:34:30.890Z,7.47
2022-10-17T14:36:57.267Z,12.80
2022-10-17T14:39:24.924Z,11.18
2022-10-17T14:41:51.499Z,13.68
2022-10-17T14:44:21.536Z,10.77
2022-10-17T14:46:50.976Z,11.75
2022-10-17T14:49:24.313Z,13.15
2022-10-17T14:52:11.429Z,11.18
2022-10-17T14:54:39.937Z,5.93
2022-10-17T14:57:14.543Z,8.68
2022-10-17T14:59:53.913Z,11.63
2022-10-17T15:02:21.404Z,15.50
2022-10-17T15:04:47.656Z,11.52
2022-10-17T15:07:15.431Z,9.38
2022-10-17T15:09:42.114Z,12.57
2022-10-17T15:12:12.842Z,11.48
2022-10-17T15:14:39.056Z,7.47
2022-10-17T15:17:10.180Z,4.90
2022-10-17T15:19:36.400Z,12.65
2022-10-17T15:22:02.733Z,7.25
2022-10-17T15:24:28.935Z,11.35
2022-10-17T15:26:56.428Z,9.32
2022-10-17T15:29:22.657Z,6.38
2022-10-17T15:31:48.915Z,5.78
2022-10-17T15:34:15.118Z,8.70
2022-10-17T15:36:42.162Z,5.03
2022-10-17T15:39:09.570Z,10.85
2022-10-17T15:41:35.787Z,5.88
2022-10-17T15:44:02.044Z,4.65
2022-10-17T15:46:33.074Z,4.50
2022-10-17T15:49:04.074Z,4.53
2022-10-17T15:51:30.321Z,15.90
2022-10-17T15:53:56.552Z,7.45
2022-10-17T15:56:24.987Z,9.15
2022-10-17T15:58:51.210Z,6.40
2022-10-17T16:01:20.305Z,5.90
2022-10-17T16:03:48.773Z,4.22
2022-10-17T16:06:15.004Z,4.47
2022-10-17T16:08:41.276Z,3.65
2022-10-17T16:11:10.023Z,7.18
2022-10-17T16:13:36.348Z,3.75
2022-10-17T16:16:02.564Z,5.95
2022-10-17T16:18:28.776Z,6.85
2022-10-17T16:20:55.079Z,4.55
2022-10-17T16:23:21.339Z,4.03
2022-10-17T16:25:47.567Z,4.55
2022-10-17T16:28:13.796Z,6.95
2022-10-17T16:30:42.447Z,6.78
2022-10-17T16:33:10.288Z,10.90
2022-10-17T16:35:37.570Z,5.88
2022-10-17T16:38:04.902Z,4.57
2022-10-17T16:40:31.197Z,5.43
2022-10-17T16:42:57.443Z,7.72
2022-10-17T16:45:23.739Z,4.25
2022-10-17T16:47:50.503Z,2.53
2022-10-17T16:50:16.795Z,4.60
2022-10-17T16:52:43.013Z,8.90
2022-10-17T16:55:09.873Z,4.20
2022-10-17T16:57:36.308Z,3.53
2022-10-17T17:00:03.678Z,4.68
2022-10-17T17:02:30.189Z,5.97
2022-10-17T17:04:56.551Z,4.07
2022-10-17T17:07:24.285Z,4.07
2022-10-17T17:09:50.714Z,13.05
2022-10-17T17:12:16.945Z,4.70
2022-10-17T17:14:43.239Z,11.43
2022-10-17T17:17:15.414Z,7.45
2022-10-17T17:19:50.812Z,7.93
2022-10-17T17:22:17.080Z,10.98
2022-10-17T17:24:43.327Z,15.85
2022-10-17T17:27:12.712Z,19.25
2022-10-17T17:32:05.960Z,12.95
2022-10-17T17:34:35.265Z,11.80
2022-10-17T17:37:01.494Z,24.85
2022-10-17T17:39:27.756Z,31.98
2022-10-17T17:41:54.007Z,16.77
2022-10-17T17:44:20.214Z,16.27
2022-10-17T17:46:46.553Z,11.77
2022-10-17T17:49:12.759Z,11.45
2022-10-17T17:51:41.312Z,12.25
2022-10-17T17:54:11.326Z,11.13
2022-10-17T17:56:38.028Z,12.68
2022-10-17T17:59:04.374Z,17.27
2022-10-17T18:01:31.841Z,11.10
2022-10-17T18:03:58.966Z,7.60
2022-10-17T18:06:25.679Z,9.73
2022-10-17T18:08:53.207Z,8.70
2022-10-17T18:11:21.892Z,7.63
2022-10-17T18:13:52.824Z,7.40
2022-10-17T18:16:19.051Z,11.10
2022-10-17T18:18:45.290Z,6.95
2022-10-17T18:21:12.896Z,5.50
2022-10-17T18:23:39.703Z,9.73
2022-10-17T18:26:06.103Z,6.32
2022-10-17T18:28:36.109Z,11.38
2022-10-17T18:31:09.471Z,6.35
2022-10-17T18:33:35.782Z,8.32
2022-10-17T18:36:06.099Z,5.47
2022-10-17T18:38:33.297Z,8.75
2022-10-17T18:41:06.652Z,4.32
2022-10-17T18:43:36.498Z,5.65
2022-10-17T18:46:04.608Z,8.07
2022-10-17T18:48:31.647Z,4.10
2022-10-17T18:50:57.899Z,6.90
2022-10-17T18:53:24.159Z,5.50
2022-10-17T18:55:50.790Z,9.05
2022-10-17T18:58:19.259Z,6.03
2022-10-17T19:00:45.724Z,5.70
2022-10-17T19:03:12.095Z,6.47
2022-10-17T19:05:38.764Z,7.90
2022-10-17T19:08:05.080Z,7.30
2022-10-17T19:10:34.248Z,5.15
2022-10-17T19:13:01.128Z,4.15
2022-10-17T19:15:27.398Z,4.65
2022-10-17T19:17:53.611Z,4.18
2022-10-17T19:20:19.948Z,5.05
2022-10-17T19:22:46.202Z,5.60
2022-10-17T19:25:12.798Z,17.80
2022-10-17T19:27:39.331Z,4.00
2022-10-17T19:30:05.835Z,5.40
2022-10-17T19:32:32.952Z,11.35
2022-10-17T19:34:59.388Z,11.10
2022-10-17T19:37:25.616Z,43.83
2022-10-17T19:39:51.835Z,47.05
2022-10-17T19:42:18.112Z,47.40
2022-10-17T19:44:44.328Z,42.00
2022-10-17T19:47:10.601Z,28.70
2022-10-17T19:49:36.894Z,24.33
2022-10-17T19:52:03.198Z,22.70
2022-10-17T19:54:29.474Z,13.20
2022-10-17T19:56:55.691Z,14.02
2022-10-17T19:59:22.407Z,13.35
2022-10-17T20:01:48.683Z,10.52
2022-10-17T20:04:14.932Z,6.35
2022-10-17T20:06:41.431Z,8.85
2022-10-17T20:09:09.895Z,7.50
2022-10-17T20:11:38.720Z,10.20
2022-10-17T20:14:05.804Z,5.85
2022-10-17T20:16:33.154Z,5.63
2022-10-17T20:19:04.471Z,6.03
2022-10-17T20:21:37.052Z,7.88
2022-10-17T20:24:04.661Z,9.25
2022-10-17T20:26:38.004Z,5.68
2022-10-17T20:29:08.753Z,8.75
2022-10-17T20:31:35.160Z,5.82
2022-10-17T20:34:01.389Z,6.85
2022-10-17T20:36:27.636Z,5.50
2022-10-17T20:38:54.991Z,7.47
2022-10-17T20:41:21.450Z,9.15
2022-10-17T20:43:49.640Z,4.25
2022-10-17T20:46:29.348Z,6.22
2022-10-17T20:49:01.629Z,4.90
2022-10-17T20:51:28.006Z,5.63
2022-10-17T20:53:54.313Z,6.50
2022-10-17T20:56:25.066Z,14.50
2022-10-17T20:58:52.342Z,44.30
2022-10-17T21:01:18.802Z,62.05
2022-10-17T21:03:46.624Z,54.70
2022-10-17T21:06:13.514Z,59.45
2022-10-17T21:08:39.984Z,54.17
2022-10-17T21:11:09.122Z,50.78
2022-10-17T21:13:35.357Z,47.28
2022-10-17T21:16:05.748Z,45.50
2022-10-17T21:18:31.960Z,42.05
2022-10-17T21:21:06.195Z,43.80
2022-10-17T21:23:32.413Z,44.72
2022-10-17T21:26:01.530Z,47.38
2022-10-17T21:28:27.783Z,33.75
2022-10-17T21:30:54.096Z,28.73
2022-10-17T21:33:20.289Z,31.98
2022-10-17T21:35:46.507Z,28.85
2022-10-17T21:38:12.739Z,24.75
2022-10-17T21:40:38.963Z,29.70
2022-10-17T21:43:05.177Z,21.55
2022-10-17T21:45:31.479Z,21.60
2022-10-17T21:48:13.584Z,18.83
2022-10-17T21:50:41.295Z,20.65
2022-10-17T21:53:07.506Z,20.58
2022-10-17T21:55:35.769Z,17.55
2022-10-17T21:58:01.983Z,17.65
2022-10-17T22:00:28.211Z,18.98
2022-10-17T22:02:54.472Z,18.83
2022-10-17T22:05:20.747Z,15.18
2022-10-17T22:07:47.427Z,12.73
2022-10-17T22:10:13.683Z,14.85
2022-10-17T22:12:39.890Z,19.88
2022-10-17T22:15:06.446Z,12.65
2022-10-17T22:17:32.821Z,17.95
2022-10-17T22:19:59.144Z,8.77
2022-10-17T22:22:25.355Z,13.13
2022-10-17T22:24:51.546Z,8.77
2022-10-17T22:27:17.752Z,7.88
2022-10-17T22:29:43.963Z,14.25
2022-10-17T22:32:10.180Z,9.88
2022-10-17T22:34:36.415Z,9.82
2022-10-17T22:37:02.627Z,15.55
2022-10-17T22:39:28.830Z,9.27
2022-10-17T22:41:55.063Z,21.65
2022-10-17T22:44:21.271Z,11.82
2022-10-17T22:46:47.585Z,11.02
2022-10-17T22:49:13.899Z,14.88
2022-10-17T22:51:40.114Z,16.88
2022-10-17T22:54:06.801Z,10.30
2022-10-17T22:56:33.033Z,6.00
2022-10-17T22:58:59.245Z,15.25
2022-10-17T23:01:25.592Z,15.10
2022-10-17T23:03:52.454Z,9.02
2022-10-17T23:06:19.435Z,8.43
2022-10-17T23:08:45.707Z,5.63
2022-10-17T23:11:12.015Z,7.13
2022-10-17T23:13:39.660Z,25.88
2022-10-17T23:16:06.295Z,10.10
2022-10-17T23:18:32.542Z,8.15
2022-10-17T23:20:58.826Z,8.00
2022-10-17T23:23:25.359Z,12.93
2022-10-17T23:25:51.635Z,6.95
2022-10-17T23:28:17.969Z,10.45
2022-10-17T23:30:44.233Z,7.45
2022-10-17T23:33:11.182Z,14.02
2022-10-17T23:35:37.446Z,20.20
2022-10-17T23:38:03.703Z,9.48
2022-10-17T23:40:29.917Z,8.60
2022-10-17T23:42:56.137Z,5.60
2022-10-17T23:45:22.420Z,7.20
2022-10-17T23:47:48.690Z,7.20
2022-10-17T23:50:15.051Z,8.30
2022-10-17T23:52:41.264Z,20.17
2022-10-17T23:55:07.930Z,13.98
2022-10-17T23:57:34.505Z,9.35
